sensor_id;sensor_type;location;lat;lon;timestamp;P1;durP1;ratioP1;P2;durP2;ratioP2
28629;SDS011;15817;42.130;24.762;2023-04-01T00:01:55;11.68;;;4.47;;
28629;SDS011;15817;42.130;24.762;2023-04-01T00:04:21;7.10;;;5.05;;
28629;SDS011;15817;42.130;24.762;2023-04-01T00:06:47;8.82;;;4.82;;
28629;SDS011;15817;42.130;24.762;2023-04-01T00:09:13;10.35;;;5.82;;
28629;SDS011;15817;42.130;24.762;2023-04-01T00:11:40;9.88;;;5.13;;
28629;SDS011;15817;42.130;24.762;2023-04-01T00:14:06;10.38;;;5.38;;
28629;SDS011;15817;42.130;24.762;2023-04-01T00:16:35;6.97;;;4.78;;
28629;SDS011;15817;42.130;24.762;2023-04-01T00:19:00;8.55;;;4.13;;
28629;SDS011;15817;42.130;24.762;2023-04-01T00:21:26;7.82;;;4.68;;
28629;SDS011;15817;42.130;24.762;2023-04-01T00:23:52;10.93;;;4.63;;
28629;SDS011;15817;42.130;24.762;2023-04-01T00:26:20;15.43;;;5.60;;
28629;SDS011;15817;42.130;24.762;2023-04-01T00:28:49;8.80;;;4.45;;
28629;SDS011;15817;42.130;24.762;2023-04-01T00:31:15;7.68;;;4.50;;
28629;SDS011;15817;42.130;24.762;2023-04-01T00:33:42;8.75;;;4.78;;
28629;SDS011;15817;42.130;24.762;2023-04-01T00:38:35;8.32;;;4.57;;
28629;SDS011;15817;42.130;24.762;2023-04-01T00:41:02;10.00;;;4.80;;
28629;SDS011;15817;42.130;24.762;2023-04-01T00:43:29;7.50;;;4.80;;
28629;SDS011;15817;42.130;24.762;2023-04-01T00:45:55;8.23;;;4.60;;
28629;SDS011;15817;42.130;24.762;2023-04-01T00:48:22;9.98;;;4.80;;
28629;SDS011;15817;42.130;24.762;2023-04-01T00:50:52;9.65;;;5.22;;
28629;SDS011;15817;42.130;24.762;2023-04-01T00:53:21;8.57;;;5.03;;
28629;SDS011;15817;42.130;24.762;2023-04-01T00:56:02;9.38;;;5.13;;
28629;SDS011;15817;42.130;24.762;2023-04-01T00:58:43;10.02;;;5.43;;
28629;SDS011;15817;42.130;24.762;2023-04-01T01:01:16;13.35;;;5.93;;
28629;SDS011;15817;42.130;24.762;2023-04-01T01:03:42;11.38;;;5.85;;
28629;SDS011;15817;42.130;24.762;2023-04-01T01:06:09;13.13;;;6.28;;
28629;SDS011;15817;42.130;24.762;2023-04-01T01:08:51;11.73;;;6.00;;
28629;SDS011;15817;42.130;24.762;2023-04-01T01:14:22;13.88;;;6.60;;
28629;SDS011;15817;42.130;24.762;2023-04-01T01:34:51;9.57;;;5.80;;
28629;SDS011;15817;42.130;24.762;2023-04-01T01:37:31;15.27;;;6.32;;
28629;SDS011;15817;42.130;24.762;2023-04-01T01:40:01;11.65;;;5.78;;
28629;SDS011;15817;42.130;24.762;2023-04-01T01:42:33;16.77;;;6.47;;
28629;SDS011;15817;42.130;24.762;2023-04-01T01:45:02;9.60;;;5.90;;
28629;SDS011;15817;42.130;24.762;2023-04-01T01:47:31;9.30;;;5.95;;
28629;SDS011;15817;42.130;24.762;2023-04-01T01:49:59;10.85;;;5.68;;
28629;SDS011;15817;42.130;24.762;2023-04-01T01:52:26;10.98;;;5.78;;
28629;SDS011;15817;42.130;24.762;2023-04-01T01:54:56;10.32;;;5.55;;
28629;SDS011;15817;42.130;24.762;2023-04-01T01:57:30;11.65;;;5.57;;
28629;SDS011;15817;42.130;24.762;2023-04-01T02:00:03;14.13;;;5.97;;
28629;SDS011;15817;42.130;24.762;2023-04-01T02:02:42;13.95;;;5.43;;
28629;SDS011;15817;42.130;24.762;2023-04-01T02:05:15;9.85;;;5.45;;
28629;SDS011;15817;42.130;24.762;2023-04-01T02:07:49;13.05;;;5.88;;
28629;SDS011;15817;42.130;24.762;2023-04-01T02:10:25;14.63;;;6.82;;
28629;SDS011;15817;42.130;24.762;2023-04-01T02:12:56;12.88;;;7.30;;
28629;SDS011;15817;42.130;24.762;2023-04-01T02:15:26;13.48;;;7.15;;
28629;SDS011;15817;42.130;24.762;2023-04-01T02:17:55;9.50;;;6.70;;
28629;SDS011;15817;42.130;24.762;2023-04-01T02:20:25;11.95;;;6.95;;
28629;SDS011;15817;42.130;24.762;2023-04-01T02:22:54;13.40;;;7.30;;
28629;SDS011;15817;42.130;24.762;2023-04-01T02:25:23;14.32;;;7.80;;
28629;SDS011;15817;42.130;24.762;2023-04-01T02:27:56;12.73;;;7.00;;
28629;SDS011;15817;42.130;24.762;2023-04-01T02:30:27;15.45;;;7.70;;
28629;SDS011;15817;42.130;24.762;2023-04-01T02:32:57;11.77;;;7.35;;
28629;SDS011;15817;42.130;24.762;2023-04-01T02:35:29;14.23;;;7.00;;
28629;SDS011;15817;42.130;24.762;2023-04-01T02:37:55;12.23;;;7.47;;
28629;SDS011;15817;42.130;24.762;2023-04-01T02:40:22;12.48;;;7.57;;
28629;SDS011;15817;42.130;24.762;2023-04-01T02:42:48;11.48;;;7.45;;
28629;SDS011;15817;42.130;24.762;2023-04-01T02:45:14;10.80;;;7.55;;
28629;SDS011;15817;42.130;24.762;2023-04-01T02:47:45;11.73;;;6.60;;
28629;SDS011;15817;42.130;24.762;2023-04-01T02:50:11;19.02;;;7.45;;
28629;SDS011;15817;42.130;24.762;2023-04-01T02:52:37;10.82;;;7.38;;
28629;SDS011;15817;42.130;24.762;2023-04-01T02:55:03;16.33;;;7.85;;
28629;SDS011;15817;42.130;24.762;2023-04-01T02:57:30;12.05;;;8.20;;
28629;SDS011;15817;42.130;24.762;2023-04-01T02:59:56;11.70;;;7.05;;
28629;SDS011;15817;42.130;24.762;2023-04-01T03:02:24;9.80;;;7.10;;
28629;SDS011;15817;42.130;24.762;2023-04-01T03:04:53;18.45;;;7.70;;
28629;SDS011;15817;42.130;24.762;2023-04-01T03:07:19;14.32;;;7.07;;
28629;SDS011;15817;42.130;24.762;2023-04-01T03:09:45;14.43;;;7.55;;
28629;SDS011;15817;42.130;24.762;2023-04-01T03:12:10;13.80;;;7.50;;
28629;SDS011;15817;42.130;24.762;2023-04-01T03:14:45;13.80;;;7.22;;
28629;SDS011;15817;42.130;24.762;2023-04-01T03:17:11;11.25;;;6.93;;
28629;SDS011;15817;42.130;24.762;2023-04-01T03:19:37;14.15;;;7.10;;
28629;SDS011;15817;42.130;24.762;2023-04-01T03:22:06;11.25;;;6.95;;
28629;SDS011;15817;42.130;24.762;2023-04-01T03:24:35;13.25;;;7.13;;
28629;SDS011;15817;42.130;24.762;2023-04-01T03:27:01;15.63;;;7.75;;
28629;SDS011;15817;42.130;24.762;2023-04-01T03:29:26;12.98;;;7.88;;
28629;SDS011;15817;42.130;24.762;2023-04-01T03:31:56;11.90;;;7.47;;
28629;SDS011;15817;42.130;24.762;2023-04-01T03:34:24;12.50;;;7.53;;
28629;SDS011;15817;42.130;24.762;2023-04-01T03:36:51;10.45;;;7.38;;
28629;SDS011;15817;42.130;24.762;2023-04-01T03:39:17;13.23;;;7.47;;
28629;SDS011;15817;42.130;24.762;2023-04-01T03:41:44;14.35;;;7.00;;
28629;SDS011;15817;42.130;24.762;2023-04-01T03:44:11;11.65;;;7.20;;
28629;SDS011;15817;42.130;24.762;2023-04-01T03:46:38;11.38;;;7.43;;
28629;SDS011;15817;42.130;24.762;2023-04-01T03:49:08;11.88;;;7.00;;
28629;SDS011;15817;42.130;24.762;2023-04-01T03:51:37;11.25;;;7.28;;
28629;SDS011;15817;42.130;24.762;2023-04-01T03:54:07;17.70;;;8.23;;
28629;SDS011;15817;42.130;24.762;2023-04-01T03:56:46;14.05;;;8.35;;
28629;SDS011;15817;42.130;24.762;2023-04-01T03:59:32;13.18;;;8.15;;
28629;SDS011;15817;42.130;24.762;2023-04-01T04:02:01;11.52;;;7.13;;
28629;SDS011;15817;42.130;24.762;2023-04-01T04:04:48;15.93;;;8.35;;
28629;SDS011;15817;42.130;24.762;2023-04-01T04:07:14;14.43;;;7.70;;
28629;SDS011;15817;42.130;24.762;2023-04-01T04:10:15;10.55;;;7.07;;
28629;SDS011;15817;42.130;24.762;2023-04-01T04:12:44;16.38;;;7.50;;
28629;SDS011;15817;42.130;24.762;2023-04-01T04:15:10;11.05;;;7.57;;
28629;SDS011;15817;42.130;24.762;2023-04-01T04:17:43;14.68;;;8.85;;
28629;SDS011;15817;42.130;24.762;2023-04-01T04:20:10;14.27;;;8.98;;
28629;SDS011;15817;42.130;24.762;2023-04-01T04:22:39;12.10;;;7.53;;
28629;SDS011;15817;42.130;24.762;2023-04-01T04:25:07;13.90;;;7.50;;
28629;SDS011;15817;42.130;24.762;2023-04-01T04:27:36;13.88;;;8.40;;
28629;SDS011;15817;42.130;24.762;2023-04-01T04:30:07;18.05;;;7.85;;
28629;SDS011;15817;42.130;24.762;2023-04-01T04:32:35;19.27;;;8.40;;
28629;SDS011;15817;42.130;24.762;2023-04-01T04:35:03;22.48;;;8.10;;
28629;SDS011;15817;42.130;24.762;2023-04-01T04:37:32;16.67;;;7.70;;
28629;SDS011;15817;42.130;24.762;2023-04-01T04:39:58;13.48;;;6.90;;
28629;SDS011;15817;42.130;24.762;2023-04-01T04:42:31;11.68;;;5.40;;
28629;SDS011;15817;42.130;24.762;2023-04-01T04:45:05;14.43;;;5.72;;
28629;SDS011;15817;42.130;24.762;2023-04-01T04:47:51;11.10;;;5.47;;
28629;SDS011;15817;42.130;24.762;2023-04-01T04:50:17;8.05;;;4.60;;
28629;SDS011;15817;42.130;24.762;2023-04-01T04:52:52;11.50;;;5.22;;
28629;SDS011;15817;42.130;24.762;2023-04-01T04:55:18;8.18;;;5.28;;
28629;SDS011;15817;42.130;24.762;2023-04-01T04:57:57;13.80;;;5.93;;
28629;SDS011;15817;42.130;24.762;2023-04-01T05:00:23;10.60;;;5.40;;
28629;SDS011;15817;42.130;24.762;2023-04-01T05:02:55;10.40;;;5.88;;
28629;SDS011;15817;42.130;24.762;2023-04-01T05:05:30;12.70;;;6.20;;
28629;SDS011;15817;42.130;24.762;2023-04-01T05:08:05;11.50;;;5.63;;
28629;SDS011;15817;42.130;24.762;2023-04-01T05:10:39;14.35;;;5.93;;
28629;SDS011;15817;42.130;24.762;2023-04-01T05:13:05;9.70;;;5.60;;
28629;SDS011;15817;42.130;24.762;2023-04-01T05:15:35;15.93;;;5.88;;
28629;SDS011;15817;42.130;24.762;2023-04-01T05:18:18;13.27;;;6.63;;
28629;SDS011;15817;42.130;24.762;2023-04-01T05:20:48;14.07;;;5.90;;
28629;SDS011;15817;42.130;24.762;2023-04-01T05:23:20;12.80;;;6.03;;
28629;SDS011;15817;42.130;24.762;2023-04-01T05:25:49;17.75;;;6.38;;
28629;SDS011;15817;42.130;24.762;2023-04-01T05:28:18;15.15;;;6.25;;
28629;SDS011;15817;42.130;24.762;2023-04-01T05:31:00;13.73;;;5.88;;
28629;SDS011;15817;42.130;24.762;2023-04-01T05:33:51;13.43;;;6.10;;
28629;SDS011;15817;42.130;24.762;2023-04-01T05:40:09;12.85;;;6.00;;
28629;SDS011;15817;42.130;24.762;2023-04-01T05:42:36;13.40;;;5.50;;
28629;SDS011;15817;42.130;24.762;2023-04-01T05:45:02;14.25;;;5.97;;
28629;SDS011;15817;42.130;24.762;2023-04-01T05:47:59;9.45;;;5.57;;
28629;SDS011;15817;42.130;24.762;2023-04-01T05:50:28;18.30;;;5.07;;
28629;SDS011;15817;42.130;24.762;2023-04-01T05:53:15;7.30;;;4.82;;
28629;SDS011;15817;42.130;24.762;2023-04-01T05:55:50;10.40;;;4.50;;
28629;SDS011;15817;42.130;24.762;2023-04-01T05:58:22;11.40;;;4.65;;
28629;SDS011;15817;42.130;24.762;2023-04-01T06:01:01;12.18;;;5.03;;
28629;SDS011;15817;42.130;24.762;2023-04-01T06:14:00;10.75;;;6.05;;
28629;SDS011;15817;42.130;24.762;2023-04-01T06:16:54;9.70;;;5.43;;
28629;SDS011;15817;42.130;24.762;2023-04-01T06:22:46;13.13;;;6.00;;
28629;SDS011;15817;42.130;24.762;2023-04-01T06:25:47;11.52;;;6.10;;
28629;SDS011;15817;42.130;24.762;2023-04-01T06:28:37;9.43;;;5.60;;
28629;SDS011;15817;42.130;24.762;2023-04-01T06:46:45;8.05;;;4.70;;
28629;SDS011;15817;42.130;24.762;2023-04-01T06:49:50;7.72;;;4.30;;
28629;SDS011;15817;42.130;24.762;2023-04-01T06:56:20;10.15;;;4.80;;
28629;SDS011;15817;42.130;24.762;2023-04-01T07:02:35;8.40;;;4.65;;
28629;SDS011;15817;42.130;24.762;2023-04-01T07:05:03;10.32;;;4.93;;
28629;SDS011;15817;42.130;24.762;2023-04-01T07:07:36;10.25;;;5.28;;
28629;SDS011;15817;42.130;24.762;2023-04-01T07:14:17;8.43;;;5.00;;
28629;SDS011;15817;42.130;24.762;2023-04-01T07:16:49;6.43;;;4.68;;
28629;SDS011;15817;42.130;24.762;2023-04-01T07:19:27;13.55;;;5.32;;
28629;SDS011;15817;42.130;24.762;2023-04-01T07:25:15;7.15;;;4.82;;
28629;SDS011;15817;42.130;24.762;2023-04-01T07:28:11;6.85;;;4.50;;
28629;SDS011;15817;42.130;24.762;2023-04-01T07:30:58;8.95;;;5.30;;
28629;SDS011;15817;42.130;24.762;2023-04-01T08:06:00;7.70;;;4.57;;
28629;SDS011;15817;42.130;24.762;2023-04-01T08:24:08;20.55;;;4.93;;
28629;SDS011;15817;42.130;24.762;2023-04-01T08:26:48;11.48;;;4.57;;
28629;SDS011;15817;42.130;24.762;2023-04-01T08:29:42;9.57;;;4.47;;
28629;SDS011;15817;42.130;24.762;2023-04-01T08:32:32;12.60;;;5.18;;
28629;SDS011;15817;42.130;24.762;2023-04-01T08:38:18;14.63;;;5.00;;
28629;SDS011;15817;42.130;24.762;2023-04-01T08:43:42;10.23;;;6.32;;
28629;SDS011;15817;42.130;24.762;2023-04-01T08:46:45;8.85;;;5.03;;
28629;SDS011;15817;42.130;24.762;2023-04-01T08:58:22;13.45;;;5.30;;
28629;SDS011;15817;42.130;24.762;2023-04-01T09:04:44;9.50;;;5.00;;
28629;SDS011;15817;42.130;24.762;2023-04-01T09:16:04;6.82;;;4.93;;
28629;SDS011;15817;42.130;24.762;2023-04-01T09:21:58;10.98;;;5.10;;
28629;SDS011;15817;42.130;24.762;2023-04-01T09:27:26;12.82;;;5.38;;
28629;SDS011;15817;42.130;24.762;2023-04-01T09:44:02;7.55;;;5.05;;
28629;SDS011;15817;42.130;24.762;2023-04-01T10:24:18;14.02;;;5.38;;
28629;SDS011;15817;42.130;24.762;2023-04-01T10:27:05;16.35;;;5.53;;
28629;SDS011;15817;42.130;24.762;2023-04-01T10:30:04;10.98;;;5.35;;
28629;SDS011;15817;42.130;24.762;2023-04-01T10:33:03;11.13;;;5.82;;
28629;SDS011;15817;42.130;24.762;2023-04-01T10:44:50;17.17;;;5.55;;
28629;SDS011;15817;42.130;24.762;2023-04-01T11:08:54;11.00;;;6.07;;
28629;SDS011;15817;42.130;24.762;2023-04-01T11:54:28;12.70;;;5.10;;
28629;SDS011;15817;42.130;24.762;2023-04-01T12:04:24;11.70;;;6.43;;
28629;SDS011;15817;42.130;24.762;2023-04-01T12:40:46;12.55;;;5.32;;
28629;SDS011;15817;42.130;24.762;2023-04-01T13:06:07;13.88;;;4.28;;
28629;SDS011;15817;42.130;24.762;2023-04-01T13:13:10;10.38;;;4.43;;
28629;SDS011;15817;42.130;24.762;2023-04-01T13:16:24;11.80;;;4.93;;
28629;SDS011;15817;42.130;24.762;2023-04-01T13:42:02;29.25;;;6.65;;
28629;SDS011;15817;42.130;24.762;2023-04-01T13:50:37;21.50;;;6.85;;
28629;SDS011;15817;42.130;24.762;2023-04-01T13:53:43;18.63;;;6.05;;
28629;SDS011;15817;42.130;24.762;2023-04-01T13:56:48;17.33;;;6.32;;
28629;SDS011;15817;42.130;24.762;2023-04-01T13:59:32;15.73;;;5.68;;
28629;SDS011;15817;42.130;24.762;2023-04-01T14:04:50;13.63;;;5.70;;
28629;SDS011;15817;42.130;24.762;2023-04-01T14:21:07;7.32;;;4.35;;
28629;SDS011;15817;42.130;24.762;2023-04-01T14:23:51;8.48;;;5.22;;
28629;SDS011;15817;42.130;24.762;2023-04-01T14:35:22;9.50;;;4.30;;
28629;SDS011;15817;42.130;24.762;2023-04-01T14:37:48;9.25;;;3.30;;
28629;SDS011;15817;42.130;24.762;2023-04-01T14:47:20;8.43;;;3.72;;
28629;SDS011;15817;42.130;24.762;2023-04-01T14:53:41;11.75;;;3.55;;
28629;SDS011;15817;42.130;24.762;2023-04-01T15:08:34;6.25;;;3.25;;
28629;SDS011;15817;42.130;24.762;2023-04-01T15:24:03;4.78;;;2.58;;
28629;SDS011;15817;42.130;24.762;2023-04-01T15:38:37;10.00;;;3.70;;
28629;SDS011;15817;42.130;24.762;2023-04-01T15:41:16;6.93;;;3.15;;
28629;SDS011;15817;42.130;24.762;2023-04-01T15:47:00;7.07;;;3.50;;
28629;SDS011;15817;42.130;24.762;2023-04-01T15:52:57;7.38;;;3.58;;
28629;SDS011;15817;42.130;24.762;2023-04-01T16:28:21;9.70;;;3.50;;
28629;SDS011;15817;42.130;24.762;2023-04-01T16:31:37;6.90;;;3.25;;
28629;SDS011;15817;42.130;24.762;2023-04-01T16:34:17;12.25;;;3.28;;
28629;SDS011;15817;42.130;24.762;2023-04-01T16:37:21;9.32;;;3.00;;
28629;SDS011;15817;42.130;24.762;2023-04-01T16:43:38;12.25;;;3.50;;
28629;SDS011;15817;42.130;24.762;2023-04-01T16:49:00;8.73;;;3.40;;
28629;SDS011;15817;42.130;24.762;2023-04-01T16:54:54;6.30;;;3.10;;
28629;SDS011;15817;42.130;24.762;2023-04-01T17:11:12;5.53;;;3.35;;
28629;SDS011;15817;42.130;24.762;2023-04-01T17:25:31;6.28;;;3.22;;
28629;SDS011;15817;42.130;24.762;2023-04-01T17:28:26;6.97;;;3.25;;
28629;SDS011;15817;42.130;24.762;2023-04-01T17:31:21;5.50;;;3.03;;
28629;SDS011;15817;42.130;24.762;2023-04-01T17:34:03;6.47;;;3.10;;
28629;SDS011;15817;42.130;24.762;2023-04-01T17:45:20;6.95;;;4.13;;
28629;SDS011;15817;42.130;24.762;2023-04-01T17:47:58;7.85;;;4.80;;
28629;SDS011;15817;42.130;24.762;2023-04-01T17:56:38;4.05;;;2.65;;
28629;SDS011;15817;42.130;24.762;2023-04-01T17:59:16;3.97;;;1.80;;
28629;SDS011;15817;42.130;24.762;2023-04-01T18:07:55;1.63;;;1.30;;
28629;SDS011;15817;42.130;24.762;2023-04-01T18:26:44;0.85;;;0.70;;
28629;SDS011;15817;42.130;24.762;2023-04-01T18:39:37;3.50;;;0.80;;
28629;SDS011;15817;42.130;24.762;2023-04-01T18:42:08;1.17;;;1.08;;
28629;SDS011;15817;42.130;24.762;2023-04-01T18:51:10;1.20;;;0.90;;
28629;SDS011;15817;42.130;24.762;2023-04-01T18:57:13;2.38;;;1.15;;
28629;SDS011;15817;42.130;24.762;2023-04-01T18:59:48;2.25;;;1.23;;
28629;SDS011;15817;42.130;24.762;2023-04-01T19:02:43;1.75;;;1.23;;
28629;SDS011;15817;42.130;24.762;2023-04-01T19:05:23;1.70;;;1.48;;
28629;SDS011;15817;42.130;24.762;2023-04-01T19:14:14;6.70;;;1.65;;
28629;SDS011;15817;42.130;24.762;2023-04-01T19:26:09;8.48;;;2.30;;
28629;SDS011;15817;42.130;24.762;2023-04-01T19:28:55;3.35;;;2.17;;
28629;SDS011;15817;42.130;24.762;2023-04-01T19:31:57;7.47;;;1.95;;
28629;SDS011;15817;42.130;24.762;2023-04-01T19:50:57;2.25;;;1.50;;
28629;SDS011;15817;42.130;24.762;2023-04-01T20:08:15;7.20;;;1.58;;
28629;SDS011;15817;42.130;24.762;2023-04-01T20:11:23;5.07;;;1.60;;
28629;SDS011;15817;42.130;24.762;2023-04-01T20:14:01;2.63;;;1.83;;
28629;SDS011;15817;42.130;24.762;2023-04-01T20:27:36;2.08;;;1.80;;
28629;SDS011;15817;42.130;24.762;2023-04-01T20:41:53;3.42;;;1.30;;
28629;SDS011;15817;42.130;24.762;2023-04-01T20:47:22;1.88;;;1.60;;
28629;SDS011;15817;42.130;24.762;2023-04-01T20:50:34;1.85;;;1.33;;
28629;SDS011;15817;42.130;24.762;2023-04-01T20:53:43;2.58;;;1.33;;
28629;SDS011;15817;42.130;24.762;2023-04-01T20:56:36;2.85;;;1.35;;
28629;SDS011;15817;42.130;24.762;2023-04-01T21:22:07;1.73;;;1.30;;
28629;SDS011;15817;42.130;24.762;2023-04-01T21:42:24;2.42;;;1.70;;
28629;SDS011;15817;42.130;24.762;2023-04-01T21:48:33;2.03;;;1.83;;
28629;SDS011;15817;42.130;24.762;2023-04-01T21:56:59;2.40;;;1.70;;
28629;SDS011;15817;42.130;24.762;2023-04-01T22:00:07;1.40;;;1.30;;
28629;SDS011;15817;42.130;24.762;2023-04-01T22:05:20;2.22;;;1.80;;
28629;SDS011;15817;42.130;24.762;2023-04-01T22:08:15;2.13;;;1.90;;
28629;SDS011;15817;42.130;24.762;2023-04-01T22:10:59;2.10;;;1.70;;
28629;SDS011;15817;42.130;24.762;2023-04-01T22:13:53;4.13;;;1.95;;
28629;SDS011;15817;42.130;24.762;2023-04-01T22:16:44;3.28;;;2.10;;
28629;SDS011;15817;42.130;24.762;2023-04-01T22:22:25;3.75;;;1.60;;
28629;SDS011;15817;42.130;24.762;2023-04-01T22:25:15;1.90;;;1.60;;
28629;SDS011;15817;42.130;24.762;2023-04-01T22:30:36;1.60;;;1.40;;
28629;SDS011;15817;42.130;24.762;2023-04-01T22:33:11;3.15;;;1.98;;
28629;SDS011;15817;42.130;24.762;2023-04-01T22:41:53;1.80;;;1.42;;
28629;SDS011;15817;42.130;24.762;2023-04-01T22:52:50;1.50;;;1.17;;
28629;SDS011;15817;42.130;24.762;2023-04-01T22:55:29;1.30;;;1.20;;
28629;SDS011;15817;42.130;24.762;2023-04-01T22:58:05;1.40;;;1.25;;
28629;SDS011;15817;42.130;24.762;2023-04-01T23:03:44;1.45;;;1.25;;
28629;SDS011;15817;42.130;24.762;2023-04-01T23:06:31;1.85;;;1.20;;
28629;SDS011;15817;42.130;24.762;2023-04-01T23:12:21;1.60;;;1.30;;
28629;SDS011;15817;42.130;24.762;2023-04-01T23:14:56;1.27;;;1.17;;
28629;SDS011;15817;42.130;24.762;2023-04-01T23:21:15;1.67;;;1.25;;
28629;SDS011;15817;42.130;24.762;2023-04-01T23:23:52;2.33;;;1.20;;
28629;SDS011;15817;42.130;24.762;2023-04-01T23:29:22;1.70;;;1.50;;
28629;SDS011;15817;42.130;24.762;2023-04-01T23:32:12;1.40;;;1.30;;
28629;SDS011;15817;42.130;24.762;2023-04-01T23:34:49;4.05;;;1.45;;
28629;SDS011;15817;42.130;24.762;2023-04-01T23:37:25;2.78;;;1.60;;
28629;SDS011;15817;42.130;24.762;2023-04-01T23:39:54;2.13;;;1.77;;
28629;SDS011;15817;42.130;24.762;2023-04-01T23:42:27;2.40;;;1.67;;
28629;SDS011;15817;42.130;24.762;2023-04-01T23:44:56;1.73;;;1.40;;
28629;SDS011;15817;42.130;24.762;2023-04-01T23:47:24;1.85;;;1.42;;
28629;SDS011;15817;42.130;24.762;2023-04-01T23:50:03;1.95;;;1.35;;
28629;SDS011;15817;42.130;24.762;2023-04-01T23:52:46;1.63;;;1.23;;
28629;SDS011;15817;42.130;24.762;2023-04-01T23:55:37;1.77;;;1.20;;
28629;SDS011;15817;42.130;24.762;2023-04-01T23:58:16;1.73;;;1.40;;
